sensor_id;sensor_type;location;lat;lon;timestamp;P1;durP1;ratioP1;P2;durP2;ratioP2
7017;SDS011;3549;42.162;24.726;2022-12-07T00:00:53;95.77;;;38.10;;
7017;SDS011;3549;42.162;24.726;2022-12-07T00:03:20;90.37;;;36.23;;
7017;SDS011;3549;42.162;24.726;2022-12-07T00:05:45;86.97;;;33.77;;
7017;SDS011;3549;42.162;24.726;2022-12-07T00:08:10;88.63;;;33.37;;
7017;SDS011;3549;42.162;24.726;2022-12-07T00:10:36;85.73;;;33.40;;
7017;SDS011;3549;42.162;24.726;2022-12-07T00:13:01;95.37;;;37.00;;
7017;SDS011;3549;42.162;24.726;2022-12-07T00:15:27;97.40;;;38.33;;
7017;SDS011;3549;42.162;24.726;2022-12-07T00:17:52;85.33;;;35.30;;
7017;SDS011;3549;42.162;24.726;2022-12-07T00:20:18;92.73;;;33.73;;
7017;SDS011;3549;42.162;24.726;2022-12-07T00:22:43;83.47;;;32.90;;
7017;SDS011;3549;42.162;24.726;2022-12-07T00:25:08;88.43;;;33.07;;
7017;SDS011;3549;42.162;24.726;2022-12-07T00:27:34;87.20;;;32.37;;
7017;SDS011;3549;42.162;24.726;2022-12-07T00:29:59;89.60;;;33.63;;
7017;SDS011;3549;42.162;24.726;2022-12-07T00:32:25;86.37;;;33.97;;
7017;SDS011;3549;42.162;24.726;2022-12-07T00:34:51;90.57;;;35.33;;
7017;SDS011;3549;42.162;24.726;2022-12-07T00:37:16;86.07;;;34.80;;
7017;SDS011;3549;42.162;24.726;2022-12-07T00:39:41;85.37;;;33.73;;
7017;SDS011;3549;42.162;24.726;2022-12-07T00:42:07;94.13;;;34.27;;
7017;SDS011;3549;42.162;24.726;2022-12-07T00:44:32;83.93;;;33.30;;
7017;SDS011;3549;42.162;24.726;2022-12-07T00:46:58;89.67;;;33.90;;
7017;SDS011;3549;42.162;24.726;2022-12-07T00:49:23;86.07;;;32.90;;
7017;SDS011;3549;42.162;24.726;2022-12-07T00:51:49;80.67;;;31.60;;
7017;SDS011;3549;42.162;24.726;2022-12-07T00:54:14;83.50;;;30.27;;
7017;SDS011;3549;42.162;24.726;2022-12-07T00:56:40;77.83;;;30.07;;
7017;SDS011;3549;42.162;24.726;2022-12-07T00:59:05;72.00;;;27.57;;
7017;SDS011;3549;42.162;24.726;2022-12-07T01:01:32;78.93;;;29.63;;
7017;SDS011;3549;42.162;24.726;2022-12-07T01:04:00;67.03;;;28.43;;
7017;SDS011;3549;42.162;24.726;2022-12-07T01:06:26;68.70;;;28.53;;
7017;SDS011;3549;42.162;24.726;2022-12-07T01:08:52;70.10;;;28.57;;
7017;SDS011;3549;42.162;24.726;2022-12-07T01:11:19;68.07;;;28.00;;
7017;SDS011;3549;42.162;24.726;2022-12-07T01:13:52;75.97;;;28.67;;
7017;SDS011;3549;42.162;24.726;2022-12-07T01:16:19;67.73;;;27.63;;
7017;SDS011;3549;42.162;24.726;2022-12-07T01:18:46;68.17;;;27.73;;
7017;SDS011;3549;42.162;24.726;2022-12-07T01:21:15;67.83;;;28.67;;
7017;SDS011;3549;42.162;24.726;2022-12-07T01:23:43;71.47;;;28.33;;
7017;SDS011;3549;42.162;24.726;2022-12-07T01:26:12;75.60;;;28.33;;
7017;SDS011;3549;42.162;24.726;2022-12-07T01:28:40;67.77;;;26.53;;
7017;SDS011;3549;42.162;24.726;2022-12-07T01:31:09;65.30;;;27.43;;
7017;SDS011;3549;42.162;24.726;2022-12-07T01:33:39;68.63;;;28.70;;
7017;SDS011;3549;42.162;24.726;2022-12-07T01:36:07;68.13;;;26.50;;
7017;SDS011;3549;42.162;24.726;2022-12-07T01:38:38;61.47;;;26.53;;
7017;SDS011;3549;42.162;24.726;2022-12-07T01:41:03;64.23;;;25.30;;
7017;SDS011;3549;42.162;24.726;2022-12-07T01:43:29;60.43;;;24.70;;
7017;SDS011;3549;42.162;24.726;2022-12-07T01:45:56;60.50;;;24.40;;
7017;SDS011;3549;42.162;24.726;2022-12-07T01:48:24;54.80;;;23.37;;
7017;SDS011;3549;42.162;24.726;2022-12-07T01:50:56;55.03;;;24.27;;
7017;SDS011;3549;42.162;24.726;2022-12-07T01:53:27;57.70;;;23.13;;
7017;SDS011;3549;42.162;24.726;2022-12-07T01:55:54;59.27;;;24.07;;
7017;SDS011;3549;42.162;24.726;2022-12-07T01:58:21;70.67;;;25.43;;
7017;SDS011;3549;42.162;24.726;2022-12-07T02:00:48;56.43;;;23.63;;
7017;SDS011;3549;42.162;24.726;2022-12-07T02:03:36;59.27;;;23.83;;
7017;SDS011;3549;42.162;24.726;2022-12-07T02:06:03;55.53;;;22.60;;
7017;SDS011;3549;42.162;24.726;2022-12-07T02:08:29;57.60;;;23.37;;
7017;SDS011;3549;42.162;24.726;2022-12-07T02:10:55;63.57;;;23.63;;
7017;SDS011;3549;42.162;24.726;2022-12-07T02:13:22;63.20;;;25.97;;
7017;SDS011;3549;42.162;24.726;2022-12-07T02:30:08;50.13;;;20.33;;
7017;SDS011;3549;42.162;24.726;2022-12-07T02:35:30;51.93;;;20.73;;
7017;SDS011;3549;42.162;24.726;2022-12-07T02:43:30;50.97;;;19.10;;
7017;SDS011;3549;42.162;24.726;2022-12-07T02:46:02;47.60;;;18.80;;
7017;SDS011;3549;42.162;24.726;2022-12-07T02:48:32;49.47;;;20.10;;
7017;SDS011;3549;42.162;24.726;2022-12-07T02:51:00;50.23;;;20.10;;
7017;SDS011;3549;42.162;24.726;2022-12-07T02:59:12;49.57;;;19.90;;
7017;SDS011;3549;42.162;24.726;2022-12-07T03:09:59;48.90;;;19.37;;
7017;SDS011;3549;42.162;24.726;2022-12-07T03:12:46;46.43;;;19.50;;
7017;SDS011;3549;42.162;24.726;2022-12-07T03:15:38;42.97;;;19.73;;
7017;SDS011;3549;42.162;24.726;2022-12-07T03:18:06;53.23;;;21.80;;
7017;SDS011;3549;42.162;24.726;2022-12-07T03:20:34;66.27;;;28.43;;
7017;SDS011;3549;42.162;24.726;2022-12-07T03:23:03;59.00;;;25.93;;
7017;SDS011;3549;42.162;24.726;2022-12-07T03:25:32;75.53;;;32.40;;
7017;SDS011;3549;42.162;24.726;2022-12-07T03:28:02;60.73;;;25.53;;
7017;SDS011;3549;42.162;24.726;2022-12-07T03:30:51;49.10;;;23.17;;
7017;SDS011;3549;42.162;24.726;2022-12-07T03:36:26;55.57;;;22.20;;
7017;SDS011;3549;42.162;24.726;2022-12-07T03:39:04;50.10;;;20.70;;
7017;SDS011;3549;42.162;24.726;2022-12-07T03:41:35;50.03;;;21.87;;
7017;SDS011;3549;42.162;24.726;2022-12-07T03:44:02;47.10;;;20.37;;
7017;SDS011;3549;42.162;24.726;2022-12-07T03:52:15;45.63;;;20.17;;
7017;SDS011;3549;42.162;24.726;2022-12-07T03:54:54;50.27;;;21.27;;
7017;SDS011;3549;42.162;24.726;2022-12-07T03:57:25;54.80;;;22.77;;
7017;SDS011;3549;42.162;24.726;2022-12-07T03:59:53;55.13;;;23.40;;
7017;SDS011;3549;42.162;24.726;2022-12-07T04:02:20;72.63;;;31.37;;
7017;SDS011;3549;42.162;24.726;2022-12-07T04:04:47;78.60;;;32.00;;
7017;SDS011;3549;42.162;24.726;2022-12-07T04:07:12;84.20;;;34.80;;
7017;SDS011;3549;42.162;24.726;2022-12-07T04:09:38;85.83;;;37.10;;
7017;SDS011;3549;42.162;24.726;2022-12-07T04:12:04;94.37;;;38.33;;
7017;SDS011;3549;42.162;24.726;2022-12-07T04:14:29;59.00;;;26.60;;
7017;SDS011;3549;42.162;24.726;2022-12-07T04:16:56;52.33;;;22.20;;
7017;SDS011;3549;42.162;24.726;2022-12-07T04:19:23;48.93;;;21.30;;
7017;SDS011;3549;42.162;24.726;2022-12-07T04:21:51;54.67;;;20.53;;
7017;SDS011;3549;42.162;24.726;2022-12-07T04:24:16;47.77;;;19.80;;
7017;SDS011;3549;42.162;24.726;2022-12-07T04:26:42;50.70;;;19.50;;
7017;SDS011;3549;42.162;24.726;2022-12-07T04:29:09;42.87;;;18.87;;
7017;SDS011;3549;42.162;24.726;2022-12-07T04:31:35;51.87;;;20.70;;
7017;SDS011;3549;42.162;24.726;2022-12-07T04:34:01;51.27;;;19.70;;
7017;SDS011;3549;42.162;24.726;2022-12-07T04:36:27;63.00;;;27.10;;
7017;SDS011;3549;42.162;24.726;2022-12-07T04:38:53;74.83;;;32.33;;
7017;SDS011;3549;42.162;24.726;2022-12-07T04:41:20;67.03;;;31.73;;
7017;SDS011;3549;42.162;24.726;2022-12-07T04:43:52;64.47;;;29.30;;
7017;SDS011;3549;42.162;24.726;2022-12-07T04:46:22;69.80;;;29.33;;
7017;SDS011;3549;42.162;24.726;2022-12-07T04:48:48;70.13;;;28.53;;
7017;SDS011;3549;42.162;24.726;2022-12-07T04:51:16;56.17;;;24.43;;
7017;SDS011;3549;42.162;24.726;2022-12-07T04:53:44;61.20;;;25.57;;
7017;SDS011;3549;42.162;24.726;2022-12-07T04:56:10;92.60;;;33.60;;
7017;SDS011;3549;42.162;24.726;2022-12-07T04:58:35;104.73;;;42.37;;
7017;SDS011;3549;42.162;24.726;2022-12-07T05:01:00;99.33;;;37.47;;
7017;SDS011;3549;42.162;24.726;2022-12-07T05:03:26;89.20;;;40.10;;
7017;SDS011;3549;42.162;24.726;2022-12-07T05:05:51;85.13;;;35.27;;
7017;SDS011;3549;42.162;24.726;2022-12-07T05:08:17;82.80;;;35.47;;
7017;SDS011;3549;42.162;24.726;2022-12-07T05:10:42;85.27;;;36.33;;
7017;SDS011;3549;42.162;24.726;2022-12-07T05:13:07;88.23;;;36.47;;
7017;SDS011;3549;42.162;24.726;2022-12-07T05:15:33;97.63;;;40.00;;
7017;SDS011;3549;42.162;24.726;2022-12-07T05:17:58;82.73;;;34.87;;
7017;SDS011;3549;42.162;24.726;2022-12-07T05:20:24;86.90;;;33.60;;
7017;SDS011;3549;42.162;24.726;2022-12-07T05:22:49;99.30;;;31.43;;
7017;SDS011;3549;42.162;24.726;2022-12-07T05:25:14;79.23;;;31.87;;
7017;SDS011;3549;42.162;24.726;2022-12-07T05:27:40;82.37;;;36.30;;
7017;SDS011;3549;42.162;24.726;2022-12-07T05:30:05;89.47;;;37.70;;
7017;SDS011;3549;42.162;24.726;2022-12-07T05:32:31;93.03;;;40.33;;
7017;SDS011;3549;42.162;24.726;2022-12-07T05:34:56;265.00;;;118.47;;
7017;SDS011;3549;42.162;24.726;2022-12-07T05:37:22;249.43;;;105.67;;
7017;SDS011;3549;42.162;24.726;2022-12-07T05:39:47;138.53;;;56.73;;
7017;SDS011;3549;42.162;24.726;2022-12-07T05:42:13;114.13;;;47.70;;
7017;SDS011;3549;42.162;24.726;2022-12-07T05:44:38;111.20;;;43.93;;
7017;SDS011;3549;42.162;24.726;2022-12-07T05:47:04;102.10;;;43.97;;
7017;SDS011;3549;42.162;24.726;2022-12-07T05:49:30;578.47;;;302.73;;
7017;SDS011;3549;42.162;24.726;2022-12-07T05:51:56;227.43;;;98.90;;
7017;SDS011;3549;42.162;24.726;2022-12-07T05:54:22;98.43;;;40.03;;
7017;SDS011;3549;42.162;24.726;2022-12-07T05:56:47;84.73;;;35.70;;
7017;SDS011;3549;42.162;24.726;2022-12-07T05:59:12;69.80;;;29.30;;
7017;SDS011;3549;42.162;24.726;2022-12-07T06:01:47;76.40;;;29.83;;
7017;SDS011;3549;42.162;24.726;2022-12-07T06:04:13;80.00;;;30.83;;
7017;SDS011;3549;42.162;24.726;2022-12-07T06:06:38;60.17;;;25.20;;
7017;SDS011;3549;42.162;24.726;2022-12-07T06:09:03;50.13;;;22.30;;
7017;SDS011;3549;42.162;24.726;2022-12-07T06:11:29;58.17;;;22.53;;
7017;SDS011;3549;42.162;24.726;2022-12-07T06:14:13;50.23;;;20.40;;
7017;SDS011;3549;42.162;24.726;2022-12-07T06:16:38;88.93;;;30.23;;
7017;SDS011;3549;42.162;24.726;2022-12-07T06:19:03;105.07;;;39.77;;
7017;SDS011;3549;42.162;24.726;2022-12-07T06:21:29;157.23;;;55.93;;
7017;SDS011;3549;42.162;24.726;2022-12-07T06:23:54;216.57;;;97.87;;
7017;SDS011;3549;42.162;24.726;2022-12-07T06:26:20;176.13;;;72.77;;
7017;SDS011;3549;42.162;24.726;2022-12-07T06:28:46;76.50;;;29.13;;
7017;SDS011;3549;42.162;24.726;2022-12-07T06:31:11;59.50;;;22.60;;
7017;SDS011;3549;42.162;24.726;2022-12-07T06:33:37;54.23;;;23.73;;
7017;SDS011;3549;42.162;24.726;2022-12-07T06:36:02;56.30;;;23.60;;
7017;SDS011;3549;42.162;24.726;2022-12-07T06:38:28;75.90;;;30.13;;
7017;SDS011;3549;42.162;24.726;2022-12-07T06:40:53;95.87;;;40.27;;
7017;SDS011;3549;42.162;24.726;2022-12-07T06:43:18;61.93;;;25.93;;
7017;SDS011;3549;42.162;24.726;2022-12-07T06:45:44;53.33;;;22.53;;
7017;SDS011;3549;42.162;24.726;2022-12-07T06:48:09;56.00;;;22.23;;
7017;SDS011;3549;42.162;24.726;2022-12-07T06:50:35;54.17;;;22.70;;
7017;SDS011;3549;42.162;24.726;2022-12-07T06:53:00;52.27;;;21.47;;
7017;SDS011;3549;42.162;24.726;2022-12-07T06:55:25;150.60;;;49.93;;
7017;SDS011;3549;42.162;24.726;2022-12-07T06:57:51;133.70;;;45.23;;
7017;SDS011;3549;42.162;24.726;2022-12-07T07:00:16;95.37;;;35.13;;
7017;SDS011;3549;42.162;24.726;2022-12-07T07:02:42;50.57;;;21.77;;
7017;SDS011;3549;42.162;24.726;2022-12-07T07:05:07;60.43;;;25.73;;
7017;SDS011;3549;42.162;24.726;2022-12-07T07:07:33;69.07;;;29.37;;
7017;SDS011;3549;42.162;24.726;2022-12-07T07:09:59;61.40;;;25.03;;
7017;SDS011;3549;42.162;24.726;2022-12-07T07:12:24;62.73;;;27.47;;
7017;SDS011;3549;42.162;24.726;2022-12-07T07:14:49;53.63;;;25.60;;
7017;SDS011;3549;42.162;24.726;2022-12-07T07:17:15;52.43;;;22.47;;
7017;SDS011;3549;42.162;24.726;2022-12-07T07:19:40;84.43;;;33.93;;
7017;SDS011;3549;42.162;24.726;2022-12-07T07:22:06;78.00;;;32.90;;
7017;SDS011;3549;42.162;24.726;2022-12-07T07:24:31;77.53;;;33.73;;
7017;SDS011;3549;42.162;24.726;2022-12-07T07:26:57;64.53;;;29.33;;
7017;SDS011;3549;42.162;24.726;2022-12-07T07:29:22;158.07;;;56.67;;
7017;SDS011;3549;42.162;24.726;2022-12-07T07:31:47;88.87;;;37.63;;
7017;SDS011;3549;42.162;24.726;2022-12-07T07:34:13;150.67;;;49.83;;
7017;SDS011;3549;42.162;24.726;2022-12-07T07:36:38;147.60;;;51.67;;
7017;SDS011;3549;42.162;24.726;2022-12-07T07:39:04;127.77;;;51.93;;
7017;SDS011;3549;42.162;24.726;2022-12-07T07:41:30;102.80;;;43.70;;
7017;SDS011;3549;42.162;24.726;2022-12-07T07:43:55;92.43;;;40.53;;
7017;SDS011;3549;42.162;24.726;2022-12-07T07:46:20;107.13;;;44.33;;
7017;SDS011;3549;42.162;24.726;2022-12-07T07:48:46;82.40;;;37.03;;
7017;SDS011;3549;42.162;24.726;2022-12-07T07:51:11;82.00;;;34.80;;
7017;SDS011;3549;42.162;24.726;2022-12-07T07:53:37;97.40;;;42.40;;
7017;SDS011;3549;42.162;24.726;2022-12-07T07:56:02;116.43;;;51.17;;
7017;SDS011;3549;42.162;24.726;2022-12-07T07:58:28;91.17;;;40.80;;
7017;SDS011;3549;42.162;24.726;2022-12-07T08:00:53;97.27;;;41.50;;
7017;SDS011;3549;42.162;24.726;2022-12-07T08:03:19;117.73;;;50.33;;
7017;SDS011;3549;42.162;24.726;2022-12-07T08:05:45;140.53;;;54.20;;
7017;SDS011;3549;42.162;24.726;2022-12-07T08:08:10;101.03;;;41.70;;
7017;SDS011;3549;42.162;24.726;2022-12-07T08:10:36;276.63;;;121.13;;
7017;SDS011;3549;42.162;24.726;2022-12-07T08:13:02;155.10;;;64.17;;
7017;SDS011;3549;42.162;24.726;2022-12-07T08:15:39;87.13;;;38.40;;
7017;SDS011;3549;42.162;24.726;2022-12-07T08:18:06;107.60;;;47.07;;
7017;SDS011;3549;42.162;24.726;2022-12-07T08:20:33;91.20;;;39.60;;
7017;SDS011;3549;42.162;24.726;2022-12-07T08:22:59;69.37;;;32.47;;
7017;SDS011;3549;42.162;24.726;2022-12-07T08:25:25;87.80;;;43.97;;
7017;SDS011;3549;42.162;24.726;2022-12-07T08:27:51;108.80;;;52.00;;
7017;SDS011;3549;42.162;24.726;2022-12-07T08:30:17;110.90;;;54.17;;
7017;SDS011;3549;42.162;24.726;2022-12-07T08:32:46;115.07;;;56.33;;
7017;SDS011;3549;42.162;24.726;2022-12-07T08:35:12;145.27;;;58.03;;
7017;SDS011;3549;42.162;24.726;2022-12-07T08:37:38;93.67;;;43.13;;
7017;SDS011;3549;42.162;24.726;2022-12-07T08:40:04;102.33;;;47.80;;
7017;SDS011;3549;42.162;24.726;2022-12-07T08:42:31;117.00;;;54.80;;
7017;SDS011;3549;42.162;24.726;2022-12-07T08:45:06;93.00;;;41.57;;
7017;SDS011;3549;42.162;24.726;2022-12-07T08:47:35;69.50;;;33.57;;
7017;SDS011;3549;42.162;24.726;2022-12-07T08:50:04;68.87;;;31.73;;
7017;SDS011;3549;42.162;24.726;2022-12-07T08:52:32;68.33;;;28.43;;
7017;SDS011;3549;42.162;24.726;2022-12-07T08:54:59;61.03;;;27.07;;
7017;SDS011;3549;42.162;24.726;2022-12-07T08:57:26;56.00;;;26.80;;
7017;SDS011;3549;42.162;24.726;2022-12-07T08:59:53;60.03;;;27.80;;
7017;SDS011;3549;42.162;24.726;2022-12-07T09:02:18;65.70;;;28.90;;
7017;SDS011;3549;42.162;24.726;2022-12-07T09:04:44;68.30;;;29.97;;
7017;SDS011;3549;42.162;24.726;2022-12-07T09:07:09;60.07;;;29.93;;
7017;SDS011;3549;42.162;24.726;2022-12-07T09:09:35;60.40;;;29.17;;
7017;SDS011;3549;42.162;24.726;2022-12-07T09:12:00;59.97;;;29.87;;
7017;SDS011;3549;42.162;24.726;2022-12-07T09:14:26;65.10;;;28.97;;
7017;SDS011;3549;42.162;24.726;2022-12-07T09:16:51;63.97;;;28.60;;
7017;SDS011;3549;42.162;24.726;2022-12-07T09:19:17;65.13;;;31.37;;
7017;SDS011;3549;42.162;24.726;2022-12-07T09:21:42;74.23;;;31.63;;
7017;SDS011;3549;42.162;24.726;2022-12-07T09:24:08;65.47;;;31.33;;
7017;SDS011;3549;42.162;24.726;2022-12-07T09:26:34;70.27;;;30.87;;
7017;SDS011;3549;42.162;24.726;2022-12-07T09:29:00;66.17;;;31.70;;
7017;SDS011;3549;42.162;24.726;2022-12-07T09:31:27;68.97;;;25.47;;
7017;SDS011;3549;42.162;24.726;2022-12-07T09:33:56;58.10;;;26.80;;
7017;SDS011;3549;42.162;24.726;2022-12-07T09:36:25;54.23;;;24.90;;
7017;SDS011;3549;42.162;24.726;2022-12-07T09:38:51;53.77;;;25.30;;
7017;SDS011;3549;42.162;24.726;2022-12-07T09:41:17;59.60;;;25.63;;
7017;SDS011;3549;42.162;24.726;2022-12-07T09:43:43;51.43;;;24.63;;
7017;SDS011;3549;42.162;24.726;2022-12-07T09:46:10;54.53;;;23.97;;
7017;SDS011;3549;42.162;24.726;2022-12-07T09:48:39;50.87;;;25.13;;
7017;SDS011;3549;42.162;24.726;2022-12-07T09:51:13;53.77;;;25.73;;
7017;SDS011;3549;42.162;24.726;2022-12-07T09:53:41;49.53;;;24.87;;
7017;SDS011;3549;42.162;24.726;2022-12-07T09:56:09;51.87;;;25.40;;
7017;SDS011;3549;42.162;24.726;2022-12-07T09:58:38;55.27;;;25.43;;
7017;SDS011;3549;42.162;24.726;2022-12-07T10:03:40;58.23;;;26.13;;
7017;SDS011;3549;42.162;24.726;2022-12-07T10:06:13;54.87;;;22.97;;
7017;SDS011;3549;42.162;24.726;2022-12-07T10:08:39;50.03;;;23.27;;
7017;SDS011;3549;42.162;24.726;2022-12-07T10:11:06;45.93;;;20.53;;
7017;SDS011;3549;42.162;24.726;2022-12-07T10:13:39;40.47;;;18.97;;
7017;SDS011;3549;42.162;24.726;2022-12-07T10:18:56;36.30;;;17.47;;
7017;SDS011;3549;42.162;24.726;2022-12-07T10:21:23;37.03;;;18.10;;
7017;SDS011;3549;42.162;24.726;2022-12-07T10:26:52;43.27;;;19.77;;
7017;SDS011;3549;42.162;24.726;2022-12-07T10:32:02;41.80;;;21.27;;
7017;SDS011;3549;42.162;24.726;2022-12-07T10:34:31;41.23;;;20.53;;
7017;SDS011;3549;42.162;24.726;2022-12-07T10:37:13;46.27;;;22.40;;
7017;SDS011;3549;42.162;24.726;2022-12-07T10:39:44;41.30;;;19.63;;
7017;SDS011;3549;42.162;24.726;2022-12-07T10:42:21;42.47;;;18.80;;
7017;SDS011;3549;42.162;24.726;2022-12-07T10:44:47;40.83;;;18.67;;
7017;SDS011;3549;42.162;24.726;2022-12-07T11:01:43;39.03;;;17.90;;
7017;SDS011;3549;42.162;24.726;2022-12-07T11:09:40;36.37;;;18.10;;
7017;SDS011;3549;42.162;24.726;2022-12-07T11:23:35;36.93;;;19.30;;
7017;SDS011;3549;42.162;24.726;2022-12-07T11:26:19;43.37;;;19.03;;
7017;SDS011;3549;42.162;24.726;2022-12-07T11:38:01;40.73;;;19.50;;
7017;SDS011;3549;42.162;24.726;2022-12-07T11:40:35;41.63;;;20.97;;
7017;SDS011;3549;42.162;24.726;2022-12-07T11:43:24;41.73;;;19.50;;
7017;SDS011;3549;42.162;24.726;2022-12-07T11:45:59;43.93;;;19.20;;
7017;SDS011;3549;42.162;24.726;2022-12-07T11:48:37;42.87;;;20.27;;
7017;SDS011;3549;42.162;24.726;2022-12-07T11:51:09;42.43;;;20.33;;
7017;SDS011;3549;42.162;24.726;2022-12-07T11:53:41;46.07;;;21.00;;
7017;SDS011;3549;42.162;24.726;2022-12-07T11:56:14;41.87;;;19.40;;
7017;SDS011;3549;42.162;24.726;2022-12-07T12:01:24;46.03;;;19.47;;
7017;SDS011;3549;42.162;24.726;2022-12-07T12:04:06;42.50;;;19.93;;
7017;SDS011;3549;42.162;24.726;2022-12-07T12:06:36;37.67;;;18.67;;
7017;SDS011;3549;42.162;24.726;2022-12-07T12:20:55;46.27;;;20.80;;
7017;SDS011;3549;42.162;24.726;2022-12-07T12:23:41;41.03;;;19.70;;
7017;SDS011;3549;42.162;24.726;2022-12-07T12:26:20;42.53;;;19.43;;
7017;SDS011;3549;42.162;24.726;2022-12-07T12:28:52;40.80;;;20.27;;
7017;SDS011;3549;42.162;24.726;2022-12-07T12:33:56;37.60;;;18.13;;
7017;SDS011;3549;42.162;24.726;2022-12-07T12:36:27;38.77;;;18.03;;
7017;SDS011;3549;42.162;24.726;2022-12-07T12:39:14;37.67;;;18.20;;
7017;SDS011;3549;42.162;24.726;2022-12-07T12:49:31;38.90;;;18.37;;
7017;SDS011;3549;42.162;24.726;2022-12-07T12:52:00;37.87;;;17.93;;
7017;SDS011;3549;42.162;24.726;2022-12-07T12:57:35;40.13;;;18.87;;
7017;SDS011;3549;42.162;24.726;2022-12-07T13:00:23;41.90;;;19.60;;
7017;SDS011;3549;42.162;24.726;2022-12-07T13:02:54;38.47;;;18.77;;
7017;SDS011;3549;42.162;24.726;2022-12-07T13:05:22;41.67;;;18.87;;
7017;SDS011;3549;42.162;24.726;2022-12-07T13:07:53;44.67;;;19.23;;
7017;SDS011;3549;42.162;24.726;2022-12-07T13:15:40;37.40;;;18.17;;
7017;SDS011;3549;42.162;24.726;2022-12-07T13:31:50;35.17;;;18.13;;
7017;SDS011;3549;42.162;24.726;2022-12-07T13:37:00;35.50;;;17.97;;
7017;SDS011;3549;42.162;24.726;2022-12-07T13:39:27;36.73;;;17.13;;
7017;SDS011;3549;42.162;24.726;2022-12-07T13:44:24;37.77;;;18.27;;
7017;SDS011;3549;42.162;24.726;2022-12-07T13:49:32;34.70;;;16.83;;
7017;SDS011;3549;42.162;24.726;2022-12-07T13:52:16;37.67;;;18.07;;
7017;SDS011;3549;42.162;24.726;2022-12-07T13:54:46;37.70;;;17.60;;
7017;SDS011;3549;42.162;24.726;2022-12-07T13:57:13;36.80;;;17.93;;
7017;SDS011;3549;42.162;24.726;2022-12-07T13:59:40;37.23;;;17.57;;
7017;SDS011;3549;42.162;24.726;2022-12-07T14:02:19;41.63;;;17.53;;
7017;SDS011;3549;42.162;24.726;2022-12-07T14:04:48;38.57;;;17.27;;
7017;SDS011;3549;42.162;24.726;2022-12-07T14:07:22;35.80;;;16.80;;
7017;SDS011;3549;42.162;24.726;2022-12-07T14:10:01;41.93;;;19.50;;
7017;SDS011;3549;42.162;24.726;2022-12-07T14:12:30;42.03;;;19.13;;
7017;SDS011;3549;42.162;24.726;2022-12-07T14:15:00;38.33;;;18.93;;
7017;SDS011;3549;42.162;24.726;2022-12-07T14:17:27;38.53;;;18.90;;
7017;SDS011;3549;42.162;24.726;2022-12-07T14:19:59;38.93;;;17.83;;
7017;SDS011;3549;42.162;24.726;2022-12-07T14:22:33;36.73;;;18.53;;
7017;SDS011;3549;42.162;24.726;2022-12-07T14:27:38;43.30;;;21.07;;
7017;SDS011;3549;42.162;24.726;2022-12-07T14:30:04;42.30;;;19.93;;
7017;SDS011;3549;42.162;24.726;2022-12-07T14:32:30;42.63;;;19.73;;
7017;SDS011;3549;42.162;24.726;2022-12-07T14:35:00;37.80;;;19.20;;
7017;SDS011;3549;42.162;24.726;2022-12-07T14:37:28;39.37;;;19.13;;
7017;SDS011;3549;42.162;24.726;2022-12-07T14:39:54;42.13;;;20.30;;
7017;SDS011;3549;42.162;24.726;2022-12-07T14:42:20;49.23;;;23.43;;
7017;SDS011;3549;42.162;24.726;2022-12-07T14:44:49;61.50;;;28.33;;
7017;SDS011;3549;42.162;24.726;2022-12-07T14:47:14;42.13;;;21.90;;
7017;SDS011;3549;42.162;24.726;2022-12-07T14:49:40;51.13;;;23.77;;
7017;SDS011;3549;42.162;24.726;2022-12-07T14:52:05;48.13;;;22.40;;
7017;SDS011;3549;42.162;24.726;2022-12-07T14:54:38;108.07;;;36.03;;
7017;SDS011;3549;42.162;24.726;2022-12-07T14:57:04;78.77;;;31.23;;
7017;SDS011;3549;42.162;24.726;2022-12-07T14:59:29;82.23;;;33.40;;
7017;SDS011;3549;42.162;24.726;2022-12-07T15:01:54;84.40;;;34.43;;
7017;SDS011;3549;42.162;24.726;2022-12-07T15:04:20;85.93;;;33.57;;
7017;SDS011;3549;42.162;24.726;2022-12-07T15:06:58;79.57;;;35.43;;
7017;SDS011;3549;42.162;24.726;2022-12-07T15:09:25;68.97;;;30.73;;
7017;SDS011;3549;42.162;24.726;2022-12-07T15:11:51;79.97;;;33.67;;
7017;SDS011;3549;42.162;24.726;2022-12-07T15:14:16;74.40;;;31.83;;
7017;SDS011;3549;42.162;24.726;2022-12-07T15:16:42;116.10;;;44.23;;
7017;SDS011;3549;42.162;24.726;2022-12-07T15:19:18;363.90;;;152.73;;
7017;SDS011;3549;42.162;24.726;2022-12-07T15:21:47;285.93;;;117.43;;
7017;SDS011;3549;42.162;24.726;2022-12-07T15:24:13;228.13;;;95.33;;
7017;SDS011;3549;42.162;24.726;2022-12-07T15:26:39;245.33;;;97.23;;
7017;SDS011;3549;42.162;24.726;2022-12-07T15:29:06;196.33;;;79.07;;
7017;SDS011;3549;42.162;24.726;2022-12-07T15:31:32;224.67;;;93.17;;
7017;SDS011;3549;42.162;24.726;2022-12-07T15:33:58;200.23;;;82.67;;
7017;SDS011;3549;42.162;24.726;2022-12-07T15:36:24;216.97;;;82.87;;
7017;SDS011;3549;42.162;24.726;2022-12-07T15:38:52;252.60;;;115.03;;
7017;SDS011;3549;42.162;24.726;2022-12-07T15:41:17;252.37;;;117.83;;
7017;SDS011;3549;42.162;24.726;2022-12-07T15:43:43;299.43;;;126.67;;
7017;SDS011;3549;42.162;24.726;2022-12-07T15:46:32;156.97;;;63.43;;
7017;SDS011;3549;42.162;24.726;2022-12-07T15:48:59;141.70;;;52.17;;
7017;SDS011;3549;42.162;24.726;2022-12-07T15:51:25;106.20;;;46.20;;
7017;SDS011;3549;42.162;24.726;2022-12-07T15:53:51;208.77;;;83.23;;
7017;SDS011;3549;42.162;24.726;2022-12-07T15:56:16;138.33;;;59.73;;
7017;SDS011;3549;42.162;24.726;2022-12-07T15:58:42;127.90;;;51.70;;
7017;SDS011;3549;42.162;24.726;2022-12-07T16:01:14;120.20;;;50.40;;
7017;SDS011;3549;42.162;24.726;2022-12-07T16:03:41;264.07;;;111.33;;
7017;SDS011;3549;42.162;24.726;2022-12-07T16:06:07;235.10;;;103.97;;
7017;SDS011;3549;42.162;24.726;2022-12-07T16:08:33;359.93;;;148.67;;
7017;SDS011;3549;42.162;24.726;2022-12-07T16:10:59;398.00;;;154.03;;
7017;SDS011;3549;42.162;24.726;2022-12-07T16:13:24;413.83;;;156.93;;
7017;SDS011;3549;42.162;24.726;2022-12-07T16:15:50;444.90;;;175.73;;
7017;SDS011;3549;42.162;24.726;2022-12-07T16:18:15;415.57;;;154.67;;
7017;SDS011;3549;42.162;24.726;2022-12-07T16:20:41;289.53;;;111.77;;
7017;SDS011;3549;42.162;24.726;2022-12-07T16:23:06;253.97;;;106.67;;
7017;SDS011;3549;42.162;24.726;2022-12-07T16:25:32;190.43;;;83.30;;
7017;SDS011;3549;42.162;24.726;2022-12-07T16:27:58;129.33;;;53.90;;
7017;SDS011;3549;42.162;24.726;2022-12-07T16:30:23;101.53;;;41.10;;
7017;SDS011;3549;42.162;24.726;2022-12-07T16:32:50;104.03;;;42.07;;
7017;SDS011;3549;42.162;24.726;2022-12-07T16:35:16;91.73;;;36.47;;
7017;SDS011;3549;42.162;24.726;2022-12-07T16:37:41;86.30;;;33.47;;
7017;SDS011;3549;42.162;24.726;2022-12-07T16:40:07;82.77;;;31.33;;
7017;SDS011;3549;42.162;24.726;2022-12-07T16:42:33;71.47;;;31.73;;
7017;SDS011;3549;42.162;24.726;2022-12-07T16:44:59;73.23;;;29.67;;
7017;SDS011;3549;42.162;24.726;2022-12-07T16:47:25;70.27;;;28.87;;
7017;SDS011;3549;42.162;24.726;2022-12-07T16:49:50;131.00;;;57.60;;
7017;SDS011;3549;42.162;24.726;2022-12-07T16:52:17;86.03;;;37.00;;
7017;SDS011;3549;42.162;24.726;2022-12-07T16:54:43;114.03;;;44.10;;
7017;SDS011;3549;42.162;24.726;2022-12-07T16:57:08;139.43;;;49.97;;
7017;SDS011;3549;42.162;24.726;2022-12-07T16:59:33;151.93;;;47.63;;
7017;SDS011;3549;42.162;24.726;2022-12-07T17:01:59;99.47;;;37.23;;
7017;SDS011;3549;42.162;24.726;2022-12-07T17:04:24;108.47;;;37.80;;
7017;SDS011;3549;42.162;24.726;2022-12-07T17:06:50;87.43;;;34.73;;
7017;SDS011;3549;42.162;24.726;2022-12-07T17:09:15;97.50;;;38.27;;